KOSC/OSC METAR and TAF weather

Enter ICAO airport designator
Station Type Date Time Source
KOSC METAR 2019/12/12 16:56 UTC NOAA

KOSC 121656Z AUTO 17010G14KT 10SM OVC095 M04/M10 A3040 RMK AO2 T10431100


Station Type Date Time Source
KOSC Decoded METAR 2019/12/12 16:56 UTC NOAA

Oscoda, Oscoda-Wurtsmith Airport, MI, United States (KOSC) 44-27N 083-22W
Dec 12, 2019 - 11:56 AM EST / 2019.12.12 1656 UTC
Wind: from the S (170 degrees) at 12 MPH (10 KT) gusting to 16 MPH (14 KT):0
Visibility: 10 mile(s):0
Sky conditions: overcast
Temperature: 24.3 F (-4.3 C)
Windchill: 12 F (-11 C):1
Dew Point: 14.0 F (-10.0 C)
Relative Humidity: 64%
Pressure (altimeter): 30.4 in. Hg (1029 hPa)
ob: KOSC 121656Z AUTO 17010G14KT 10SM OVC095 M04/M10 A3040 RMK AO2 T10431100
cycle: 17

Station Type Date Time Source
KOSC TAF UTC NOAA

Error!

Example: see airport list